Time;durP1;ratioP1;P1;durP2;ratioP2;P2;SDS_P1;SDS_P2;PMS_P1;PMS_P2;Temp;Humidity;BMP_temperature;BMP_pressure;BME280_temperature;BME280_humidity;BME280_pressure;Samples;Min_cycle;Max_cycle;Signal;HPM_P1;HPM_P2
2022/05/21 00:01:33;;;;;;;6.15;4.20;;;13.10;99.90;;;;;;6669730;89;20317;-78
2022/05/21 00:11:34;;;;;;;7.20;4.40;;;13.10;99.90;;;;;;6672431;89;20204;-78
2022/05/21 00:21:35;;;;;;;8.45;4.65;;;13.20;99.90;;;;;;6666161;89;20184;-79
2022/05/21 00:31:36;;;;;;;7.28;4.30;;;13.10;99.90;;;;;;6670563;89;20205;-79
2022/05/21 00:41:38;;;;;;;7.17;4.50;;;13.00;99.90;;;;;;6669387;89;20343;-78
2022/05/21 00:51:49;;;;;;;8.60;5.18;;;12.90;99.90;;;;;;6669850;89;20517;-79
2022/05/21 01:01:54;;;;;;;9.65;4.62;;;12.90;99.90;;;;;;6669236;89;20210;-79
2022/05/21 01:11:55;;;;;;;6.57;4.40;;;12.80;99.90;;;;;;6669647;89;20247;-78
2022/05/21 01:21:56;;;;;;;8.00;5.32;;;12.60;99.90;;;;;;6683780;88;20200;-78
2022/05/21 01:31:57;;;;;;;10.30;4.43;;;12.50;99.90;;;;;;6670036;89;20316;-79
2022/05/21 01:52:03;;;;;;;6.40;4.03;;;12.20;99.90;;;;;;6740514;88;20287;-83
2022/05/21 02:02:04;;;;;;;5.90;3.00;;;12.20;99.90;;;;;;6739110;88;20280;-83
2022/05/21 02:12:05;;;;;;;5.43;2.37;;;12.20;99.90;;;;;;6740980;88;20876;-81
2022/05/21 02:22:05;;;;;;;4.82;2.20;;;12.20;99.90;;;;;;6747143;88;20666;-82
2022/05/21 02:32:07;;;;;;;4.00;1.95;;;12.20;99.90;;;;;;6746369;88;20203;-81
2022/05/21 02:42:43;;;;;;;3.22;1.50;;;12.20;99.90;;;;;;6744633;88;20798;-80
2022/05/21 02:52:28;;;;;;;3.70;1.15;;;12.20;99.90;;;;;;6716951;88;20163;-81
2022/05/21 03:02:29;;;;;;;2.85;1.00;;;12.30;99.90;;;;;;6717608;88;20184;-81
2022/05/21 03:12:29;;;;;;;3.17;1.10;;;12.30;99.90;;;;;;6732102;88;20219;-81
2022/05/21 03:22:30;;;;;;;3.67;0.90;;;12.20;99.90;;;;;;6729729;88;20214;-82
2022/05/21 03:32:30;;;;;;;4.00;1.00;;;12.10;99.90;;;;;;6732196;88;20220;-81
2022/05/21 03:42:31;;;;;;;6.00;1.05;;;12.10;99.90;;;;;;6731624;88;21320;-81
2022/05/21 03:52:32;;;;;;;5.80;0.90;;;12.10;99.90;;;;;;6731085;88;20182;-81
2022/05/21 04:02:32;;;;;;;4.37;0.90;;;12.00;99.90;;;;;;6733391;88;20290;-79
2022/05/21 04:12:33;;;;;;;5.75;1.25;;;12.10;99.90;;;;;;6730592;88;20223;-80
2022/05/21 04:22:33;;;;;;;2.67;0.90;;;12.10;99.90;;;;;;6730171;88;20212;-80
2022/05/21 04:32:34;;;;;;;4.03;0.90;;;12.30;99.90;;;;;;6731018;88;20750;-79
2022/05/21 04:42:35;;;;;;;5.87;1.00;;;12.30;99.90;;;;;;6761628;88;20192;-80
2022/05/21 04:52:37;;;;;;;4.97;0.90;;;12.40;99.90;;;;;;6762386;88;20321;-79
2022/05/21 05:02:37;;;;;;;5.68;1.00;;;12.50;99.90;;;;;;6741868;88;20168;-80
2022/05/21 05:12:38;;;;;;;2.35;0.73;;;12.60;99.90;;;;;;6735445;88;20203;-80
2022/05/21 05:22:38;;;;;;;5.07;1.10;;;12.90;99.90;;;;;;6745388;88;20206;-80
2022/05/21 05:32:39;;;;;;;3.25;0.73;;;13.40;99.90;;;;;;6745387;88;20176;-81
2022/05/21 05:42:40;;;;;;;3.63;0.80;;;13.80;99.90;;;;;;6745137;88;20211;-81
2022/05/21 05:52:40;;;;;;;2.67;0.70;;;14.00;99.90;;;;;;6744650;88;20247;-82
2022/05/21 06:02:59;;;;;;;4.37;1.00;;;14.20;99.90;;;;;;6744590;88;20526;-81
2022/05/21 06:13:00;;;;;;;3.87;1.10;;;14.60;99.90;;;;;;6741353;88;20239;-81
2022/05/21 06:23:01;;;;;;;5.18;1.27;;;14.90;99.90;;;;;;6750440;88;20880;-80
2022/05/21 06:33:12;;;;;;;6.75;1.67;;;15.10;99.90;;;;;;6746868;88;20158;-81
2022/05/21 06:43:13;;;;;;;6.03;1.70;;;15.30;99.90;;;;;;6741080;88;20502;-81
2022/05/21 06:53:14;;;;;;;6.90;1.33;;;15.90;99.90;;;;;;6729491;88;20196;-79
2022/05/21 07:03:14;;;;;;;6.53;1.40;;;15.40;99.90;;;;;;6733076;88;20225;-80
2022/05/21 07:33:22;;;;;;;6.25;1.45;;;16.10;99.90;;;;;;6671038;89;20727;-79
2022/05/21 07:43:30;;;;;;;7.10;1.55;;;16.20;99.90;;;;;;6678243;88;20243;-79
2022/05/21 07:53:35;;;;;;;8.48;1.80;;;16.40;99.90;;;;;;6648285;89;20218;-81
2022/05/21 08:03:36;;;;;;;5.03;1.35;;;17.70;99.90;;;;;;6655321;89;20208;-82
2022/05/21 08:13:39;;;;;;;5.55;1.17;;;17.40;99.90;;;;;;6648811;89;20209;-81
2022/05/21 08:33:44;;;;;;;4.53;1.20;;;17.80;99.90;;;;;;6668704;89;20720;-80
2022/05/21 08:44:03;;;;;;;4.60;1.30;;;17.90;99.90;;;;;;6668159;88;20216;-81
2022/05/21 08:54:04;;;;;;;5.45;1.30;;;18.40;99.90;;;;;;6654543;88;20258;-82
2022/05/21 09:04:06;;;;;;;4.80;1.20;;;18.80;99.90;;;;;;6654121;89;20684;-82
2022/05/21 09:14:15;;;;;;;3.67;1.00;;;18.20;99.90;;;;;;6648805;88;20331;-80
2022/05/21 09:24:41;;;;;;;5.03;1.12;;;18.40;99.90;;;;;;6651463;89;20221;-79
2022/05/21 09:34:41;;;;;;;7.57;1.45;;;17.90;99.90;;;;;;6640077;89;20210;-79
2022/05/21 09:55:26;;;;;;;4.55;1.30;;;19.70;99.90;;;;;;6638521;89;20195;-78
2022/05/21 10:05:35;;;;;;;5.50;1.30;;;19.30;99.90;;;;;;6647806;87;20289;-78
2022/05/21 10:15:48;;;;;;;5.80;1.60;;;18.30;99.90;;;;;;6644434;89;20201;-77
2022/05/21 10:25:54;;;;;;;4.55;1.20;;;18.40;99.90;;;;;;6642007;88;20333;-77
2022/05/21 10:36:21;;;;;;;3.90;1.17;;;19.90;99.90;;;;;;6646157;89;20840;-79
2022/05/21 10:46:29;;;;;;;4.75;1.30;;;21.30;97.90;;;;;;6648265;89;20239;-78
2022/05/21 10:56:48;;;;;;;5.15;1.30;;;21.40;95.50;;;;;;6644473;89;20322;-78
2022/05/21 11:07:18;;;;;;;3.92;1.20;;;20.80;95.90;;;;;;6641441;88;20199;-77
2022/05/21 11:17:29;;;;;;;4.40;1.48;;;21.10;93.50;;;;;;6637758;89;20263;-76
2022/05/21 11:27:46;;;;;;;4.10;1.12;;;21.20;94.90;;;;;;6655701;88;20724;-78
2022/05/21 11:37:52;;;;;;;3.42;1.23;;;21.50;92.70;;;;;;6644120;88;20205;-78
2022/05/21 11:48:13;;;;;;;6.35;1.50;;;21.50;91.60;;;;;;6640262;88;20222;-76
2022/05/21 11:58:14;;;;;;;3.40;1.27;;;21.20;93.70;;;;;;6661453;88;20379;-76
2022/05/21 12:08:23;;;;;;;3.45;1.27;;;20.70;93.10;;;;;;6646490;88;20340;-77
2022/05/21 12:18:32;;;;;;;4.53;1.10;;;21.40;91.60;;;;;;6645232;88;20210;-77
2022/05/21 12:29:00;;;;;;;6.55;1.20;;;22.30;91.10;;;;;;6649821;88;20185;-79
2022/05/21 12:39:10;;;;;;;3.25;1.00;;;23.80;83.40;;;;;;6660649;88;20188;-77
2022/05/21 12:49:11;;;;;;;3.83;1.17;;;23.90;79.70;;;;;;6643107;88;20382;-78
2022/05/21 12:59:20;;;;;;;5.72;1.30;;;23.70;79.30;;;;;;6645488;88;20225;-76
2022/05/21 13:09:20;;;;;;;3.80;1.20;;;22.80;79.20;;;;;;6652726;88;20225;-80
2022/05/21 13:19:33;;;;;;;4.17;1.20;;;23.60;77.30;;;;;;6643885;88;20278;-78
2022/05/21 13:29:33;;;;;;;4.37;1.33;;;23.80;79.30;;;;;;6649698;88;20299;-78
2022/05/21 13:39:36;;;;;;;3.30;1.50;;;23.40;77.50;;;;;;6649869;89;20646;-78
2022/05/21 13:49:40;;;;;;;2.87;1.10;;;23.60;78.60;;;;;;6700381;78;20304;-78
2022/05/21 13:59:47;;;;;;;4.53;1.42;;;23.50;78.40;;;;;;6723278;88;20254;-79
2022/05/21 14:09:50;;;;;;;4.45;1.45;;;24.70;76.50;;;;;;6722276;88;20230;-78
2022/05/21 14:20:19;;;;;;;6.75;1.40;;;24.20;75.50;;;;;;6720504;88;20213;-79
2022/05/21 14:30:38;;;;;;;4.72;1.20;;;23.90;75.20;;;;;;6720044;88;20174;-79
2022/05/21 14:40:52;;;;;;;4.37;1.20;;;23.40;76.10;;;;;;6716079;88;20211;-78
2022/05/21 15:01:13;;;;;;;4.93;1.25;;;24.00;72.20;;;;;;6729978;88;20181;-79
2022/05/21 15:11:13;;;;;;;4.05;1.33;;;24.00;74.30;;;;;;6727645;88;20210;-79
2022/05/21 15:21:23;;;;;;;4.30;1.25;;;24.10;73.50;;;;;;6726205;88;20252;-80
2022/05/21 15:31:27;;;;;;;3.45;0.90;;;23.80;73.40;;;;;;6723511;88;20718;-79
2022/05/21 15:41:28;;;;;;;3.83;1.10;;;23.50;74.50;;;;;;6720461;88;20330;-79
2022/05/21 15:51:30;;;;;;;4.43;1.20;;;22.90;75.30;;;;;;6716924;88;20306;-78
2022/05/21 16:01:32;;;;;;;3.37;1.00;;;22.70;75.00;;;;;;6718568;88;20227;-80
2022/05/21 16:11:33;;;;;;;6.32;1.40;;;23.00;76.50;;;;;;6715753;88;20330;-79
2022/05/21 16:21:36;;;;;;;3.28;0.90;;;23.90;73.10;;;;;;6714286;88;20394;-77
2022/05/21 16:31:37;;;;;;;5.10;1.20;;;23.30;73.00;;;;;;6718470;88;20228;-79
2022/05/21 16:41:41;;;;;;;4.90;1.48;;;22.50;74.60;;;;;;6719958;88;20194;-79
2022/05/21 16:51:41;;;;;;;3.47;0.97;;;22.70;74.70;;;;;;6722825;88;20247;-78
2022/05/21 17:01:42;;;;;;;3.80;1.00;;;22.50;75.60;;;;;;6717797;88;20261;-78
2022/05/21 17:11:44;;;;;;;5.23;0.97;;;21.90;76.10;;;;;;6722664;88;20193;-78
2022/05/21 17:21:59;;;;;;;3.17;1.00;;;21.70;77.70;;;;;;6717112;88;20245;-78
2022/05/21 17:32:01;;;;;;;4.35;1.20;;;21.20;77.00;;;;;;6722788;88;20663;-77
2022/05/21 17:42:02;;;;;;;3.85;1.37;;;21.10;79.60;;;;;;6729272;88;21035;-78
2022/05/21 17:52:03;;;;;;;4.03;1.10;;;20.60;78.90;;;;;;6726929;88;20188;-78
2022/05/21 18:02:03;;;;;;;4.57;1.10;;;20.40;78.90;;;;;;6717074;88;20193;-78
2022/05/21 18:12:04;;;;;;;4.62;1.10;;;20.60;83.10;;;;;;6715500;88;20596;-77
2022/05/21 18:22:05;;;;;;;7.12;1.27;;;20.50;84.30;;;;;;6716859;88;20205;-78
2022/05/21 18:32:06;;;;;;;5.62;1.27;;;20.30;88.00;;;;;;6719313;88;20207;-79
2022/05/21 18:42:07;;;;;;;7.45;1.10;;;20.10;87.00;;;;;;6719057;88;20250;-79
2022/05/21 18:52:07;;;;;;;3.83;1.30;;;19.90;87.60;;;;;;6717005;88;20210;-77
2022/05/21 19:02:08;;;;;;;4.45;1.33;;;19.70;89.50;;;;;;6715062;88;20696;-78
2022/05/21 19:12:08;;;;;;;5.05;1.40;;;19.50;91.10;;;;;;6718217;88;20316;-78
2022/05/21 19:22:09;;;;;;;5.40;1.65;;;19.20;91.80;;;;;;6717029;88;20241;-76
2022/05/21 19:32:10;;;;;;;3.10;1.33;;;18.90;93.00;;;;;;6716586;88;20217;-78
2022/05/21 19:42:13;;;;;;;5.97;2.60;;;18.60;93.90;;;;;;6719726;88;20185;-76
2022/05/21 19:52:16;;;;;;;3.70;1.40;;;18.30;95.30;;;;;;6715256;88;20483;-77
2022/05/21 20:02:22;;;;;;;6.12;1.62;;;17.90;97.10;;;;;;6707686;77;20180;-78
2022/05/21 20:12:23;;;;;;;2.80;1.35;;;17.60;99.50;;;;;;6667436;89;20335;-78
2022/05/21 20:22:23;;;;;;;4.85;2.03;;;17.40;99.90;;;;;;6660435;89;20222;-80
2022/05/21 20:32:24;;;;;;;7.40;2.03;;;17.40;99.90;;;;;;6673520;89;20195;-80
2022/05/21 20:42:24;;;;;;;10.63;3.12;;;17.00;99.90;;;;;;6657758;89;20253;-79
2022/05/21 20:52:27;;;;;;;7.23;3.73;;;16.90;99.90;;;;;;6656861;89;20281;-79
2022/05/21 21:02:30;;;;;;;6.45;2.00;;;16.80;99.90;;;;;;6663387;89;20207;-79
2022/05/21 21:12:31;;;;;;;5.65;2.05;;;16.50;99.90;;;;;;6648818;89;21229;-81
2022/05/21 21:22:32;;;;;;;5.97;2.28;;;16.00;99.90;;;;;;6651578;88;20208;-81
2022/05/21 21:32:33;;;;;;;4.15;2.03;;;16.00;99.90;;;;;;6650913;89;20169;-80
2022/05/21 21:42:34;;;;;;;7.10;2.43;;;15.80;99.90;;;;;;6645533;89;20210;-80
2022/05/21 21:52:34;;;;;;;5.78;2.50;;;15.40;99.90;;;;;;6643302;89;20193;-80
2022/05/21 22:02:35;;;;;;;5.80;2.25;;;15.30;99.90;;;;;;6639003;89;20240;-80
2022/05/21 22:12:36;;;;;;;5.22;2.30;;;15.20;99.90;;;;;;6639801;89;20236;-80
2022/05/21 22:22:36;;;;;;;14.57;7.27;;;15.10;99.90;;;;;;6634721;89;20198;-80
2022/05/21 22:32:37;;;;;;;6.78;2.55;;;14.90;99.90;;;;;;6638138;89;20540;-79
2022/05/21 22:42:38;;;;;;;6.17;3.00;;;14.70;99.90;;;;;;6638750;89;20204;-79
2022/05/21 22:52:40;;;;;;;6.45;2.33;;;14.40;99.90;;;;;;6637833;89;20509;-79
2022/05/21 23:02:42;;;;;;;8.50;2.65;;;14.20;99.90;;;;;;6637244;89;20212;-79
2022/05/21 23:12:42;;;;;;;6.43;3.37;;;14.10;99.90;;;;;;6637661;89;20200;-79
2022/05/21 23:22:43;;;;;;;11.55;4.85;;;14.20;99.90;;;;;;6638220;89;20227;-79
2022/05/21 23:32:44;;;;;;;6.65;3.03;;;14.00;99.90;;;;;;6639962;89;20226;-80
2022/05/21 23:42:44;;;;;;;5.70;2.45;;;13.70;99.90;;;;;;6640003;89;20275;-80
2022/05/21 23:52:45;;;;;;;6.78;2.12;;;13.40;99.90;;;;;;6641244;89;20192;-79
